Aérodrome :
LOGIN :

S'inscrire | Disclaimer

   EN    FR    IT 

 










Légende :    VFR   VFR Marginal   IFR   IFR Intensif   IFR Très Intensif
Visi : 
Plafond : 
>= 8 km
>= 3000ft
5 à 8 km
1000 à 3000 ft
1500m à 5 km
500 à 1000 ft
800 à 1500m
200 à 500 ft
< 800m
< 200 ft
Symboles :   Orages  Brouillard  Fortes neiges  Fortes précipitations  Vent > 20 kt
SIGMETs :   Divers  Orages  Givrage  Turbulence  Onde Orograph.  Cendres Volcan.






- Altitude de l'aérodrome : 400 ft
- Code IATA : BNX


LQBK - Banja Luka

DERNIER METAR :
  • 231930Z 18016KT 140V210 9999 FEW023 16/03 Q1001 NOSIG

METARs EXPIRÉS :
  • 231900Z 18012KT 9999 FEW023 15/03 Q1001 NOSIG
  • 231830Z 18015G25KT 160V220 9999 FEW023 15/03 Q1002 NOSIG
  • 231800Z 17006KT 120V190 9999 FEW023 15/03 Q1002 NOSIG
  • 231730Z 17012KT CAVOK 14/03 Q1002 NOSIG
  • 231700Z 17015G26KT CAVOK 15/03 Q1002 NOSIG
  • 231630Z 15007KT 110V210 CAVOK 14/03 Q1002 NOSIG
  • 231600Z 17011KT CAVOK 14/03 Q1002 NOSIG
  • 231530Z 19015KT CAVOK 15/03 Q1003 NOSIG
  • 231500Z 19019KT CAVOK 15/03 Q1003 NOSIG

TAF TAF LQBK
Valide du 23 à 18h jusqu'au 24 à 18h UTC


231700Z 2318/2418 22010KT 9999 SCT047 TX16/2413Z TN10/2406Z
PROB40
TEMPO 2318/2323 18020G30KT
PROB30
TEMPO 2402/2406 33015G25KT 5000 TSRA FEW030CB BKN045



MET'MAP, la Météo Aéronautique d'un coup d'oeil ! - Copyright ORBIFLY Décembre 2007 - Disclaimer

ORBIFLY MET'MAP TEAM :

Programmation & Développement : Alexandra Zaïnal
Sur une idée originale de : Baudouin d'Aumeries
Soutien technique & logistique : Manuel Goepfert
Assistance : Marc-Olivier Méhu




SOURCES & CREDITS :

   NOAA